TKJB8K LTBH-LTFM
Flight info
| Callsign | TKJB8K |
|---|---|
| Flight time | 0h 43m |
| Altitude | 25000 |
| Route | OLDOK1L/04 OLDOK Y213 INBET |
| Aircraft | A320/M-SDE3FGHIRWY/LB1 |
Departure
| Time | 2026-05-05 12:25 |
|---|---|
| Airport | Çanakkale Airport (LTBH) |
Arrival
| Time | 2026-05-05 13:08 |
|---|---|
| Airport | İstanbul Airport (LTFM) |
| Time | Latitude | Longitude | Altitude | Speed | Heading |
|---|---|---|---|---|---|
| 2026-05-05 11:57 | 40.13951 | 26.42548 | 36 ft | 0 kts | 62° |
| 2026-05-05 12:15 | 40.13948 | 26.42539 | 36 ft | 2 kts | 62° |
| 2026-05-05 12:15 | 40.13940 | 26.42519 | 34 ft | 2 kts | 62° |
| 2026-05-05 12:16 | 40.13937 | 26.42512 | 32 ft | 0 kts | 62° |
| 2026-05-05 12:20 | 40.13928 | 26.42531 | 35 ft | 7 kts | 147° |
| 2026-05-05 12:21 | 40.13862 | 26.42502 | 36 ft | 12 kts | 206° |
| 2026-05-05 12:21 | 40.13787 | 26.42457 | 35 ft | 7 kts | 185° |
| 2026-05-05 12:21 | 40.13774 | 26.42479 | 34 ft | 9 kts | 124° |
| 2026-05-05 12:21 | 40.13703 | 26.42560 | 34 ft | 18 kts | 165° |
| 2026-05-05 12:22 | 40.13574 | 26.42471 | 32 ft | 29 kts | 220° |
| 2026-05-05 12:22 | 40.13384 | 26.42262 | 34 ft | 43 kts | 224° |
| 2026-05-05 12:22 | 40.13152 | 26.42002 | 32 ft | 44 kts | 220° |
| 2026-05-05 12:22 | 40.12928 | 26.41749 | 29 ft | 32 kts | 220° |
| 2026-05-05 12:23 | 40.12807 | 26.41684 | 28 ft | 11 kts | 185° |
| 2026-05-05 12:23 | 40.12784 | 26.41612 | 28 ft | 11 kts | 325° |
| 2026-05-05 12:23 | 40.12821 | 26.41625 | 28 ft | 2 kts | 44° |
| 2026-05-05 12:23 | 40.12828 | 26.41633 | 28 ft | 2 kts | 44° |
| 2026-05-05 12:24 | 40.12831 | 26.41638 | 28 ft | 0 kts | 44° |
| 2026-05-05 12:24 | 40.12991 | 26.41818 | 30 ft | 70 kts | 40° |
| 2026-05-05 12:24 | 40.13525 | 26.42415 | 32 ft | 132 kts | 41° |
| 2026-05-05 12:24 | 40.14312 | 26.43323 | 297 ft | 157 kts | 42° |
| 2026-05-05 12:25 | 40.15118 | 26.44282 | 1086 ft | 156 kts | 40° |
| 2026-05-05 12:25 | 40.15960 | 26.45236 | 1722 ft | 167 kts | 40° |
| 2026-05-05 12:25 | 40.16879 | 26.46271 | 2282 ft | 183 kts | 40° |
| 2026-05-05 12:25 | 40.17882 | 26.47404 | 2813 ft | 199 kts | 40° |
| 2026-05-05 12:26 | 40.18972 | 26.48636 | 3399 ft | 216 kts | 40° |
| 2026-05-05 12:26 | 40.20151 | 26.49973 | 4049 ft | 229 kts | 40° |
| 2026-05-05 12:26 | 40.21303 | 26.51407 | 5104 ft | 229 kts | 51° |
| 2026-05-05 12:26 | 40.21992 | 26.53298 | 6083 ft | 240 kts | 75° |
| 2026-05-05 12:27 | 40.22198 | 26.55553 | 6781 ft | 259 kts | 80° |
| 2026-05-05 12:27 | 40.22381 | 26.57965 | 7469 ft | 272 kts | 80° |
| 2026-05-05 12:27 | 40.22575 | 26.60460 | 8394 ft | 277 kts | 80° |
| 2026-05-05 12:27 | 40.22774 | 26.62985 | 9365 ft | 281 kts | 80° |
| 2026-05-05 12:28 | 40.22977 | 26.65541 | 10257 ft | 286 kts | 79° |
| 2026-05-05 12:28 | 40.23193 | 26.68211 | 10775 ft | 304 kts | 79° |
| 2026-05-05 12:28 | 40.23424 | 26.71030 | 11239 ft | 321 kts | 79° |
| 2026-05-05 12:28 | 40.23667 | 26.74014 | 11668 ft | 337 kts | 80° |
| 2026-05-05 12:29 | 40.23913 | 26.77109 | 12319 ft | 345 kts | 80° |
| 2026-05-05 12:29 | 40.24154 | 26.80209 | 13094 ft | 349 kts | 80° |
| 2026-05-05 12:29 | 40.24398 | 26.83392 | 13873 ft | 354 kts | 80° |
| 2026-05-05 12:29 | 40.24632 | 26.86618 | 14548 ft | 359 kts | 83° |
| 2026-05-05 12:30 | 40.24531 | 26.89920 | 15202 ft | 368 kts | 94° |
| 2026-05-05 12:30 | 40.24028 | 26.93237 | 15845 ft | 374 kts | 98° |
| 2026-05-05 12:30 | 40.23490 | 26.96592 | 16483 ft | 379 kts | 97° |
| 2026-05-05 12:30 | 40.22952 | 26.99988 | 17110 ft | 383 kts | 97° |
| 2026-05-05 12:31 | 40.22410 | 27.03428 | 17753 ft | 387 kts | 97° |
| 2026-05-05 12:31 | 40.21870 | 27.06899 | 18408 ft | 392 kts | 97° |
| 2026-05-05 12:31 | 40.21325 | 27.10408 | 19007 ft | 396 kts | 97° |
| 2026-05-05 12:31 | 40.20956 | 27.13973 | 19626 ft | 394 kts | 86° |
| 2026-05-05 12:32 | 40.21251 | 27.17522 | 20247 ft | 391 kts | 72° |
| 2026-05-05 12:32 | 40.22199 | 27.20835 | 20854 ft | 388 kts | 58° |
| 2026-05-05 12:32 | 40.23736 | 27.23708 | 21431 ft | 385 kts | 43° |
| 2026-05-05 12:32 | 40.25754 | 27.25985 | 21988 ft | 383 kts | 30° |
| 2026-05-05 12:33 | 40.28121 | 27.27572 | 22308 ft | 381 kts | 17° |
| 2026-05-05 12:33 | 40.30663 | 27.28359 | 22155 ft | 370 kts | 4° |
| 2026-05-05 12:33 | 40.33196 | 27.28536 | 21889 ft | 359 kts | 1° |
| 2026-05-05 12:33 | 40.35670 | 27.28681 | 21632 ft | 355 kts | 1° |
| 2026-05-05 12:34 | 40.38109 | 27.28833 | 21358 ft | 355 kts | 1° |
| 2026-05-05 12:34 | 40.40569 | 27.28996 | 21123 ft | 353 kts | 2° |
| 2026-05-05 12:34 | 40.43023 | 27.29164 | 20862 ft | 352 kts | 2° |
| 2026-05-05 12:34 | 40.45467 | 27.29335 | 20606 ft | 351 kts | 2° |
| 2026-05-05 12:35 | 40.47899 | 27.29502 | 20361 ft | 350 kts | 2° |
| 2026-05-05 12:35 | 40.50328 | 27.29667 | 20114 ft | 349 kts | 2° |
| 2026-05-05 12:35 | 40.52745 | 27.29833 | 19764 ft | 346 kts | 2° |
| 2026-05-05 12:35 | 40.55096 | 27.29998 | 19629 ft | 332 kts | 2° |
| 2026-05-05 12:36 | 40.57353 | 27.30158 | 19509 ft | 318 kts | 2° |
| 2026-05-05 12:36 | 40.59511 | 27.30308 | 19166 ft | 304 kts | 2° |
| 2026-05-05 12:36 | 40.61608 | 27.30452 | 18511 ft | 300 kts | 2° |
| 2026-05-05 12:36 | 40.63676 | 27.30595 | 18040 ft | 298 kts | 2° |
| 2026-05-05 12:37 | 40.65058 | 27.30690 | 17807 ft | 301 kts | 2° |
| 2026-05-05 12:37 | 40.67131 | 27.30832 | 17479 ft | 296 kts | 2° |
| 2026-05-05 12:37 | 40.69182 | 27.30970 | 17350 ft | 295 kts | 2° |
| 2026-05-05 12:37 | 40.71231 | 27.31106 | 17233 ft | 295 kts | 2° |
| 2026-05-05 12:38 | 40.73273 | 27.31283 | 17104 ft | 293 kts | 7° |
| 2026-05-05 12:38 | 40.75251 | 27.31946 | 16881 ft | 294 kts | 19° |
| 2026-05-05 12:38 | 40.77160 | 27.32900 | 16606 ft | 293 kts | 19° |
| 2026-05-05 12:38 | 40.79063 | 27.33843 | 16336 ft | 291 kts | 18° |
| 2026-05-05 12:39 | 40.80955 | 27.34772 | 16069 ft | 290 kts | 18° |
| 2026-05-05 12:39 | 40.82838 | 27.35694 | 15816 ft | 288 kts | 18° |
| 2026-05-05 12:39 | 40.84718 | 27.36614 | 15561 ft | 288 kts | 18° |
| 2026-05-05 12:39 | 40.86594 | 27.37536 | 15298 ft | 287 kts | 18° |
| 2026-05-05 12:40 | 40.88459 | 27.38453 | 15043 ft | 286 kts | 18° |
| 2026-05-05 12:40 | 40.90320 | 27.39371 | 14782 ft | 285 kts | 19° |
| 2026-05-05 12:40 | 40.92172 | 27.40290 | 14525 ft | 284 kts | 20° |
| 2026-05-05 12:40 | 40.93841 | 27.41674 | 14269 ft | 288 kts | 43° |
| 2026-05-05 12:41 | 40.94875 | 27.43959 | 13992 ft | 298 kts | 69° |
| 2026-05-05 12:41 | 40.94992 | 27.46743 | 13433 ft | 315 kts | 98° |
| 2026-05-05 12:41 | 40.94239 | 27.49484 | 13073 ft | 316 kts | 108° |
| 2026-05-05 12:41 | 40.93408 | 27.52186 | 12568 ft | 318 kts | 107° |
| 2026-05-05 12:42 | 40.92599 | 27.54867 | 12271 ft | 312 kts | 107° |
| 2026-05-05 12:42 | 40.91804 | 27.57530 | 11877 ft | 310 kts | 107° |
| 2026-05-05 12:42 | 40.91073 | 27.60191 | 11494 ft | 305 kts | 99° |
| 2026-05-05 12:42 | 40.90771 | 27.62915 | 11066 ft | 293 kts | 86° |
| 2026-05-05 12:43 | 40.90705 | 27.65562 | 10372 ft | 292 kts | 86° |
| 2026-05-05 12:43 | 40.90632 | 27.68233 | 9686 ft | 289 kts | 86° |
| 2026-05-05 12:43 | 40.90556 | 27.70869 | 9120 ft | 282 kts | 87° |
| 2026-05-05 12:43 | 40.90476 | 27.73368 | 8989 ft | 260 kts | 86° |
| 2026-05-05 12:44 | 40.90453 | 27.75730 | 9004 ft | 257 kts | 78° |
| 2026-05-05 12:44 | 40.90763 | 27.78035 | 9007 ft | 255 kts | 73° |
| 2026-05-05 12:44 | 40.91098 | 27.80335 | 9006 ft | 255 kts | 74° |
| 2026-05-05 12:44 | 40.91423 | 27.82639 | 9009 ft | 255 kts | 74° |
| 2026-05-05 12:45 | 40.91792 | 27.84921 | 9005 ft | 251 kts | 64° |
| 2026-05-05 12:45 | 40.92668 | 27.86850 | 9005 ft | 242 kts | 41° |
| 2026-05-05 12:45 | 40.94027 | 27.88097 | 9008 ft | 237 kts | 20° |
| 2026-05-05 12:45 | 40.95632 | 27.88523 | 9005 ft | 236 kts | 360° |
| 2026-05-05 12:46 | 40.97272 | 27.88488 | 9006 ft | 236 kts | 359° |
| 2026-05-05 12:46 | 40.98916 | 27.88459 | 9006 ft | 236 kts | 360° |
| 2026-05-05 12:46 | 41.00558 | 27.88432 | 9007 ft | 236 kts | 359° |
| 2026-05-05 12:46 | 41.02196 | 27.88455 | 9007 ft | 235 kts | 6° |
| 2026-05-05 12:47 | 41.03793 | 27.88930 | 9010 ft | 236 kts | 14° |
| 2026-05-05 12:47 | 41.05380 | 27.89480 | 9011 ft | 236 kts | 13° |
| 2026-05-05 12:47 | 41.06953 | 27.90011 | 9010 ft | 236 kts | 13° |
| 2026-05-05 12:47 | 41.08545 | 27.90544 | 9009 ft | 236 kts | 13° |
| 2026-05-05 12:48 | 41.10141 | 27.91081 | 9009 ft | 236 kts | 13° |
| 2026-05-05 12:48 | 41.11730 | 27.91641 | 9009 ft | 237 kts | 18° |
| 2026-05-05 12:48 | 41.13212 | 27.92612 | 9012 ft | 239 kts | 27° |
| 2026-05-05 12:48 | 41.14656 | 27.93699 | 9009 ft | 238 kts | 27° |
| 2026-05-05 12:49 | 41.16104 | 27.94779 | 9012 ft | 239 kts | 26° |
| 2026-05-05 12:49 | 41.17560 | 27.95863 | 9008 ft | 240 kts | 26° |
| 2026-05-05 12:49 | 41.19012 | 27.96949 | 9007 ft | 239 kts | 26° |
| 2026-05-05 12:49 | 41.20454 | 27.98056 | 9008 ft | 240 kts | 31° |
| 2026-05-05 12:50 | 41.21715 | 27.99531 | 9010 ft | 244 kts | 41° |
| 2026-05-05 12:50 | 41.22920 | 28.01114 | 9007 ft | 243 kts | 41° |
| 2026-05-05 12:50 | 41.24131 | 28.02685 | 9006 ft | 243 kts | 40° |
| 2026-05-05 12:50 | 41.25322 | 28.04283 | 9005 ft | 245 kts | 47° |
| 2026-05-05 12:51 | 41.26035 | 28.06369 | 9004 ft | 256 kts | 76° |
| 2026-05-05 12:51 | 41.25861 | 28.08766 | 8905 ft | 271 kts | 108° |
| 2026-05-05 12:51 | 41.24727 | 28.10770 | 8671 ft | 279 kts | 138° |
| 2026-05-05 12:51 | 41.23180 | 28.12348 | 8443 ft | 280 kts | 140° |
| 2026-05-05 12:52 | 41.21642 | 28.13913 | 8229 ft | 278 kts | 139° |
| 2026-05-05 12:52 | 41.20132 | 28.15457 | 8016 ft | 277 kts | 139° |
| 2026-05-05 12:52 | 41.18610 | 28.17022 | 7801 ft | 276 kts | 139° |
| 2026-05-05 12:52 | 41.17094 | 28.18586 | 7590 ft | 274 kts | 139° |
| 2026-05-05 12:53 | 41.15605 | 28.20127 | 7382 ft | 269 kts | 139° |
| 2026-05-05 12:53 | 41.14136 | 28.21641 | 7190 ft | 264 kts | 140° |
| 2026-05-05 12:53 | 41.12700 | 28.23119 | 7004 ft | 259 kts | 140° |
| 2026-05-05 12:53 | 41.11292 | 28.24565 | 6819 ft | 253 kts | 139° |
| 2026-05-05 12:54 | 41.08578 | 28.27351 | 6459 ft | 240 kts | 140° |
| 2026-05-05 12:54 | 41.07278 | 28.28691 | 6279 ft | 234 kts | 140° |
| 2026-05-05 12:54 | 41.06003 | 28.30004 | 6104 ft | 230 kts | 140° |
| 2026-05-05 12:55 | 41.04743 | 28.31301 | 5940 ft | 229 kts | 139° |
| 2026-05-05 12:55 | 41.03503 | 28.32576 | 5769 ft | 229 kts | 140° |
| 2026-05-05 12:55 | 41.02193 | 28.33923 | 5588 ft | 242 kts | 140° |
| 2026-05-05 12:55 | 41.00859 | 28.35290 | 5412 ft | 242 kts | 140° |
| 2026-05-05 12:56 | 40.99529 | 28.36650 | 5234 ft | 241 kts | 138° |
| 2026-05-05 12:56 | 40.98417 | 28.38257 | 5060 ft | 235 kts | 118° |
| 2026-05-05 12:56 | 40.97749 | 28.40200 | 4871 ft | 230 kts | 100° |
| 2026-05-05 12:56 | 40.97551 | 28.42267 | 4669 ft | 224 kts | 84° |
| 2026-05-05 12:57 | 40.97563 | 28.44326 | 4470 ft | 223 kts | 86° |
| 2026-05-05 12:57 | 40.97562 | 28.46378 | 4272 ft | 222 kts | 86° |
| 2026-05-05 12:57 | 40.97558 | 28.48423 | 4078 ft | 222 kts | 87° |
| 2026-05-05 12:57 | 40.97375 | 28.50450 | 3884 ft | 223 kts | 100° |
| 2026-05-05 12:58 | 40.97042 | 28.52437 | 3685 ft | 218 kts | 99° |
| 2026-05-05 12:58 | 40.96732 | 28.54360 | 3497 ft | 210 kts | 99° |
| 2026-05-05 12:58 | 40.96435 | 28.56230 | 3320 ft | 206 kts | 99° |
| 2026-05-05 12:58 | 40.96139 | 28.58088 | 3132 ft | 206 kts | 99° |
| 2026-05-05 12:59 | 40.95929 | 28.59951 | 3023 ft | 204 kts | 88° |
| 2026-05-05 12:59 | 40.95965 | 28.61821 | 3005 ft | 204 kts | 86° |
| 2026-05-05 12:59 | 40.95992 | 28.63696 | 3003 ft | 204 kts | 86° |
| 2026-05-05 13:00 | 40.96344 | 28.67374 | 3011 ft | 201 kts | 60° |
| 2026-05-05 13:00 | 40.97148 | 28.68857 | 3014 ft | 199 kts | 41° |
| 2026-05-05 13:01 | 41.00775 | 28.71243 | 3010 ft | 197 kts | 2° |
| 2026-05-05 13:01 | 41.02152 | 28.71222 | 3010 ft | 197 kts | 358° |
| 2026-05-05 13:01 | 41.03505 | 28.71191 | 3009 ft | 189 kts | 359° |
| 2026-05-05 13:01 | 41.04787 | 28.71165 | 3001 ft | 181 kts | 359° |
| 2026-05-05 13:02 | 41.06049 | 28.71141 | 3016 ft | 182 kts | 359° |
| 2026-05-05 13:02 | 41.07308 | 28.71116 | 2997 ft | 180 kts | 359° |
| 2026-05-05 13:02 | 41.08550 | 28.71092 | 3037 ft | 171 kts | 359° |
| 2026-05-05 13:02 | 41.09704 | 28.71070 | 3021 ft | 159 kts | 360° |
| 2026-05-05 13:03 | 41.10766 | 28.71049 | 3000 ft | 145 kts | 358° |
| 2026-05-05 13:03 | 41.11713 | 28.71031 | 3016 ft | 130 kts | 359° |
| 2026-05-05 13:03 | 41.12614 | 28.71014 | 2990 ft | 132 kts | 359° |
| 2026-05-05 13:03 | 41.13534 | 28.70997 | 2879 ft | 132 kts | 358° |
| 2026-05-05 13:04 | 41.14450 | 28.70978 | 2734 ft | 130 kts | 359° |
| 2026-05-05 13:04 | 41.15357 | 28.70960 | 2561 ft | 129 kts | 358° |
| 2026-05-05 13:04 | 41.16260 | 28.70943 | 2385 ft | 130 kts | 359° |
| 2026-05-05 13:04 | 41.17157 | 28.70926 | 2209 ft | 129 kts | 358° |
| 2026-05-05 13:05 | 41.18055 | 28.70909 | 2039 ft | 128 kts | 359° |
| 2026-05-05 13:05 | 41.18945 | 28.70890 | 1869 ft | 128 kts | 359° |
| 2026-05-05 13:05 | 41.19827 | 28.70873 | 1706 ft | 127 kts | 359° |
| 2026-05-05 13:05 | 41.20714 | 28.70859 | 1513 ft | 127 kts | 360° |
| 2026-05-05 13:06 | 41.21603 | 28.70842 | 1348 ft | 127 kts | 360° |
| 2026-05-05 13:06 | 41.22485 | 28.70819 | 1193 ft | 127 kts | 359° |
| 2026-05-05 13:06 | 41.23367 | 28.70795 | 1000 ft | 127 kts | 360° |
| 2026-05-05 13:06 | 41.24254 | 28.70784 | 827 ft | 127 kts | 360° |
| 2026-05-05 13:07 | 41.25133 | 28.70765 | 649 ft | 125 kts | 359° |
| 2026-05-05 13:07 | 41.25991 | 28.70748 | 481 ft | 124 kts | 360° |
| 2026-05-05 13:07 | 41.26857 | 28.70735 | 343 ft | 124 kts | 0° |
| 2026-05-05 13:07 | 41.27557 | 28.70715 | 330 ft | 64 kts | 360° |
| 2026-05-05 13:08 | 41.27826 | 28.70706 | 333 ft | 14 kts | 357° |
| 2026-05-05 13:08 | 41.27901 | 28.70702 | 333 ft | 24 kts | 358° |
| 2026-05-05 13:08 | 41.28150 | 28.70705 | 330 ft | 40 kts | 8° |
| 2026-05-05 13:08 | 41.28371 | 28.70808 | 330 ft | 18 kts | 28° |
| 2026-05-05 13:09 | 41.28403 | 28.70831 | 333 ft | 3 kts | 28° |
| 2026-05-05 13:09 | 41.28433 | 28.70853 | 334 ft | 7 kts | 28° |
| 2026-05-05 13:09 | 41.28485 | 28.70893 | 334 ft | 10 kts | 37° |
| 2026-05-05 13:09 | 41.28504 | 28.70989 | 331 ft | 13 kts | 85° |
| 2026-05-05 13:10 | 41.28509 | 28.71122 | 334 ft | 16 kts | 91° |
| 2026-05-05 13:10 | 41.28506 | 28.71287 | 334 ft | 20 kts | 90° |
| 2026-05-05 13:10 | 41.28507 | 28.71477 | 334 ft | 17 kts | 88° |
| 2026-05-05 13:10 | 41.28552 | 28.71541 | 333 ft | 3 kts | 342° |
| 2026-05-05 13:11 | 41.28582 | 28.71545 | 332 ft | 6 kts | 11° |
| 2026-05-05 13:11 | 41.28608 | 28.71546 | 334 ft | 0 kts | 359° |